createdAt,value
2019-01-11T00:01:00.275Z,-1.70
2019-01-11T00:03:29.064Z,-1.70
2019-01-11T00:06:26.695Z,-1.80
2019-01-11T00:08:55.458Z,-1.80
2019-01-11T00:11:24.272Z,-1.90
2019-01-11T00:13:53.062Z,-1.90
2019-01-11T00:16:22.173Z,-1.90
2019-01-11T00:18:51.448Z,-2.00
2019-01-11T00:21:20.325Z,-2.00
2019-01-11T00:23:49.180Z,-2.10
2019-01-11T00:26:18.123Z,-2.20
2019-01-11T00:28:47.265Z,-2.20
2019-01-11T00:31:16.293Z,-2.10
2019-01-11T00:33:45.088Z,-2.10
2019-01-11T00:36:13.886Z,-2.20
2019-01-11T00:38:42.702Z,-2.20
2019-01-11T00:41:11.642Z,-2.20
2019-01-11T00:43:40.524Z,-2.20
2019-01-11T00:46:09.415Z,-2.30
2019-01-11T00:48:38.553Z,-2.30
2019-01-11T00:51:07.435Z,-2.20
2019-01-11T00:53:36.228Z,-2.30
2019-01-11T00:56:05.507Z,-2.30
2019-01-11T00:58:34.301Z,-2.30
2019-01-11T01:01:03.163Z,-2.30
2019-01-11T01:03:31.943Z,-2.40
2019-01-11T01:06:00.795Z,-2.30
2019-01-11T01:08:30.587Z,-2.30
2019-01-11T01:11:00.332Z,-2.30
2019-01-11T01:13:29.197Z,-2.20
2019-01-11T01:15:58.053Z,-2.20
2019-01-11T01:18:26.847Z,-2.20
2019-01-11T01:20:56.131Z,-2.20
2019-01-11T01:23:25.073Z,-2.10
2019-01-11T01:25:53.853Z,-2.20
2019-01-11T01:28:22.709Z,-2.20
2019-01-11T01:30:51.840Z,-2.20
2019-01-11T01:33:20.643Z,-2.20
2019-01-11T01:35:49.760Z,-2.20
2019-01-11T01:38:18.688Z,-2.20
2019-01-11T01:40:47.544Z,-2.20
2019-01-11T01:43:16.404Z,-2.20
2019-01-11T01:45:45.232Z,-2.20
2019-01-11T01:48:14.193Z,-2.20
2019-01-11T01:50:42.977Z,-2.30
2019-01-11T01:53:11.769Z,-2.30
2019-01-11T01:55:40.562Z,-2.30
2019-01-11T01:58:09.430Z,-2.30
2019-01-11T02:00:38.366Z,-2.30
2019-01-11T02:03:07.308Z,-2.30
2019-01-11T02:05:36.433Z,-2.20
2019-01-11T02:08:05.345Z,-2.20
2019-01-11T02:10:34.201Z,-2.20
2019-01-11T02:13:02.992Z,-2.20
2019-01-11T02:15:31.858Z,-2.20
2019-01-11T02:18:00.715Z,-2.20
2019-01-11T02:20:29.505Z,-2.20
2019-01-11T02:22:58.613Z,-2.20
2019-01-11T02:25:27.473Z,-2.20
2019-01-11T02:27:56.246Z,-2.20
2019-01-11T02:30:25.221Z,-2.20
2019-01-11T02:32:54.018Z,-2.30
2019-01-11T02:35:22.923Z,-2.20
2019-01-11T02:37:51.843Z,-2.20
2019-01-11T02:40:20.693Z,-2.20
2019-01-11T02:42:49.704Z,-2.30
2019-01-11T02:45:20.208Z,-2.30
2019-01-11T02:47:49.153Z,-2.40
2019-01-11T02:50:18.085Z,-2.40
2019-01-11T02:52:47.012Z,-2.40
2019-01-11T02:55:15.962Z,-2.40
2019-01-11T02:57:44.825Z,-2.50
2019-01-11T03:00:16.346Z,-2.40
2019-01-11T03:02:45.283Z,-2.50
2019-01-11T03:05:14.488Z,-2.40
2019-01-11T03:07:44.095Z,-2.40
2019-01-11T03:10:17.927Z,-2.40
2019-01-11T03:12:46.943Z,-2.40
2019-01-11T03:15:16.848Z,-2.30
2019-01-11T03:17:46.031Z,-2.30
2019-01-11T03:20:15.888Z,-2.30
2019-01-11T03:22:44.822Z,-2.30
2019-01-11T03:25:13.908Z,-2.30
2019-01-11T03:27:42.825Z,-2.30
2019-01-11T03:30:14.487Z,-2.30
2019-01-11T03:32:43.629Z,-2.40
2019-01-11T03:35:16.803Z,-2.40
2019-01-11T03:37:47.697Z,-2.30
2019-01-11T03:40:17.822Z,-2.30
2019-01-11T03:42:46.606Z,-2.30
2019-01-11T03:45:17.575Z,-2.30
2019-01-11T03:47:46.441Z,-2.20
2019-01-11T03:50:16.145Z,-2.20
2019-01-11T03:52:45.005Z,-2.10
2019-01-11T03:55:15.154Z,-2.10
2019-01-11T03:57:44.016Z,-2.10
2019-01-11T04:00:15.623Z,-2.10
2019-01-11T04:02:44.800Z,-2.00
2019-01-11T04:05:13.736Z,-2.10
2019-01-11T04:07:42.662Z,-2.00
2019-01-11T04:10:16.789Z,-2.00
2019-01-11T04:12:45.625Z,-2.00
2019-01-11T04:15:15.598Z,-2.00
2019-01-11T04:17:44.593Z,-2.00
2019-01-11T04:20:16.411Z,-2.00
2019-01-11T04:22:51.629Z,-2.00
2019-01-11T04:25:23.005Z,-2.00
2019-01-11T04:27:52.125Z,-2.00
2019-01-11T04:30:22.640Z,-1.90
2019-01-11T04:32:51.612Z,-1.90
2019-01-11T04:35:20.641Z,-1.90
2019-01-11T04:37:49.589Z,-1.90
2019-01-11T04:40:19.585Z,-2.00
2019-01-11T04:42:48.506Z,-1.90
2019-01-11T04:45:17.436Z,-2.00
2019-01-11T04:47:46.467Z,-2.00
2019-01-11T04:50:17.992Z,-1.90
2019-01-11T04:52:46.934Z,-1.80
2019-01-11T04:55:16.791Z,-1.80
2019-01-11T04:57:45.634Z,-1.90
2019-01-11T05:00:20.236Z,-2.00
2019-01-11T05:02:49.441Z,-2.00
2019-01-11T05:05:18.394Z,-2.10
2019-01-11T05:07:47.257Z,-2.10
2019-01-11T05:10:19.188Z,-2.00
2019-01-11T05:12:48.035Z,-2.00
2019-01-11T05:15:17.337Z,-2.00
2019-01-11T05:17:46.312Z,-2.10
2019-01-11T05:20:17.350Z,-2.20
2019-01-11T05:22:46.512Z,-2.20
2019-01-11T05:25:15.445Z,-2.30
2019-01-11T05:27:44.244Z,-2.30
2019-01-11T05:30:16.005Z,-2.30
2019-01-11T05:32:44.787Z,-2.30
2019-01-11T05:35:13.564Z,-2.30
2019-01-11T05:37:42.426Z,-2.40
2019-01-11T05:40:16.673Z,-2.40
2019-01-11T05:42:45.811Z,-2.40
2019-01-11T05:45:15.307Z,-2.40
2019-01-11T05:47:44.165Z,-2.40
2019-01-11T05:50:15.422Z,-2.40
2019-01-11T05:52:44.363Z,-2.40
2019-01-11T05:55:19.401Z,-2.40
2019-01-11T05:58:07.357Z,-2.50
2019-01-11T06:00:36.150Z,-2.60
2019-01-11T06:03:04.986Z,-2.60
2019-01-11T06:05:33.756Z,-2.60
2019-01-11T06:08:09.156Z,-2.70
2019-01-11T06:10:37.953Z,-2.70
2019-01-11T06:13:06.763Z,-2.70
2019-01-11T06:15:36.212Z,-2.70
2019-01-11T06:18:05.097Z,-2.60
2019-01-11T06:20:33.944Z,-2.50
2019-01-11T06:23:02.993Z,-2.50
2019-01-11T06:25:31.859Z,-2.50
2019-01-11T06:28:00.641Z,-2.60
2019-01-11T06:30:29.502Z,-2.70
2019-01-11T06:32:58.365Z,-2.70
2019-01-11T06:35:27.395Z,-2.70
2019-01-11T06:37:57.031Z,-2.70
2019-01-11T06:40:25.819Z,-2.70
2019-01-11T06:42:54.588Z,-2.70
2019-01-11T06:45:23.501Z,-2.70
2019-01-11T06:47:52.373Z,-2.60
2019-01-11T06:50:21.293Z,-2.60
2019-01-11T06:52:50.089Z,-2.60
2019-01-11T06:55:19.000Z,-2.50
2019-01-11T06:57:48.372Z,-2.40
2019-01-11T07:00:17.349Z,-2.30
2019-01-11T07:02:46.268Z,-2.40
2019-01-11T07:05:15.272Z,-2.40
2019-01-11T07:07:44.215Z,-2.40
2019-01-11T07:10:16.156Z,-2.40
2019-01-11T07:12:45.263Z,-2.40
2019-01-11T07:15:14.181Z,-2.30
2019-01-11T07:17:43.000Z,-2.30
2019-01-11T07:20:13.206Z,-2.30
2019-01-11T07:22:42.179Z,-2.30
2019-01-11T07:25:11.456Z,-2.30
2019-01-11T07:27:48.934Z,-2.20
2019-01-11T07:30:17.869Z,-2.20
2019-01-11T07:32:46.743Z,-2.20
2019-01-11T07:35:17.144Z,-2.10
2019-01-11T07:37:45.951Z,-2.20
2019-01-11T07:40:15.260Z,-2.30
2019-01-11T07:42:44.105Z,-2.20
2019-01-11T07:45:13.322Z,-2.20
2019-01-11T07:47:42.104Z,-2.20
2019-01-11T07:50:11.676Z,-2.30
2019-01-11T07:52:40.692Z,-2.30
2019-01-11T07:55:09.629Z,-2.40
2019-01-11T07:57:38.489Z,-2.30
2019-01-11T08:00:08.490Z,-2.30
2019-01-11T08:02:39.517Z,-2.20
2019-01-11T08:05:08.727Z,-2.20
2019-01-11T08:07:37.691Z,-2.20
2019-01-11T08:10:06.813Z,-2.20
2019-01-11T08:12:35.590Z,-2.20
2019-01-11T08:15:05.462Z,-2.30
2019-01-11T08:17:34.306Z,-2.20
2019-01-11T08:20:03.168Z,-2.20
2019-01-11T08:22:40.580Z,-2.30
2019-01-11T08:25:10.472Z,-2.30
2019-01-11T08:27:39.320Z,-2.30
2019-01-11T08:30:11.534Z,-2.30
2019-01-11T08:32:40.379Z,-2.30
2019-01-11T08:35:10.138Z,-2.30
2019-01-11T08:37:39.078Z,-2.30
2019-01-11T08:40:08.816Z,-2.20
2019-01-11T08:42:37.969Z,-2.10
2019-01-11T08:45:08.524Z,-2.10
2019-01-11T08:47:37.372Z,-2.00
2019-01-11T08:50:11.192Z,-2.00
2019-01-11T08:52:40.150Z,-1.90
2019-01-11T08:55:09.182Z,-1.90
2019-01-11T08:57:38.031Z,-1.90
2019-01-11T09:00:08.292Z,-1.90
2019-01-11T09:02:37.074Z,-1.70
2019-01-11T09:05:06.169Z,-1.60
2019-01-11T09:07:34.966Z,-1.70
2019-01-11T09:10:04.905Z,-1.80
2019-01-11T09:12:33.668Z,-1.60
2019-01-11T09:15:02.698Z,-1.50
2019-01-11T09:17:32.659Z,-1.80
2019-01-11T09:20:01.524Z,-1.80
2019-01-11T09:22:30.541Z,-1.70
2019-01-11T09:24:59.328Z,-1.50
2019-01-11T09:27:28.106Z,-1.40
2019-01-11T09:29:56.922Z,-1.40
2019-01-11T09:32:26.249Z,-1.60
2019-01-11T09:34:55.041Z,-1.60
2019-01-11T09:37:23.896Z,-1.30
2019-01-11T09:39:52.749Z,-1.20
2019-01-11T09:42:21.524Z,-1.20
2019-01-11T09:44:50.633Z,-1.20
2019-01-11T09:47:19.414Z,-1.00
2019-01-11T09:49:48.198Z,-0.80
2019-01-11T09:52:17.049Z,-0.60
2019-01-11T09:54:46.170Z,-0.50
2019-01-11T09:57:15.022Z,-0.70
2019-01-11T09:59:43.813Z,-0.70
2019-01-11T10:02:31.685Z,-0.50
2019-01-11T10:05:01.024Z,-0.30
2019-01-11T10:07:30.756Z,-0.30
2019-01-11T10:09:59.549Z,-0.20
2019-01-11T10:12:28.397Z,-0.10
2019-01-11T10:14:57.179Z,-0.10
2019-01-11T10:17:26.049Z,-0.20
2019-01-11T10:19:55.196Z,-0.10
2019-01-11T10:22:23.979Z,0.10
2019-01-11T10:24:52.765Z,0.10
2019-01-11T10:27:26.137Z,0.30
2019-01-11T10:30:09.560Z,0.30
2019-01-11T10:32:50.395Z,0.40
2019-01-11T10:36:15.895Z,0.30
2019-01-11T10:38:44.931Z,0.30
2019-01-11T10:41:13.723Z,0.40
2019-01-11T10:43:42.480Z,0.40
2019-01-11T10:46:38.949Z,0.60
2019-01-11T10:49:33.232Z,0.60
2019-01-11T10:52:02.263Z,0.70
2019-01-11T10:54:40.236Z,0.70
2019-01-11T10:57:09.240Z,0.80
2019-01-11T10:59:38.269Z,0.80
2019-01-11T11:02:07.377Z,0.90
2019-01-11T11:04:37.900Z,0.90
2019-01-11T11:07:06.834Z,0.80
2019-01-11T11:09:35.604Z,0.80
2019-01-11T11:12:04.990Z,0.80
2019-01-11T11:14:33.857Z,0.70
2019-01-11T11:17:03.228Z,0.70
2019-01-11T11:19:32.105Z,0.80
2019-01-11T11:22:01.053Z,0.70
2019-01-11T11:24:29.940Z,0.60
2019-01-11T11:26:58.809Z,0.50
2019-01-11T11:29:27.596Z,0.60
2019-01-11T11:31:56.374Z,0.60
2019-01-11T11:34:26.936Z,0.60
2019-01-11T11:36:55.907Z,0.50
2019-01-11T11:39:24.838Z,0.40
2019-01-11T11:41:53.635Z,0.30
2019-01-11T11:44:22.405Z,0.30
2019-01-11T11:46:51.181Z,0.30
2019-01-11T11:49:20.024Z,0.20
2019-01-11T11:51:48.803Z,0.20
2019-01-11T11:54:17.582Z,0.20
2019-01-11T11:56:46.587Z,0.20
2019-01-11T11:59:15.413Z,0.20
2019-01-11T12:01:46.702Z,0.30
2019-01-11T12:04:14.920Z,0.30
2019-01-11T12:06:43.793Z,0.40
2019-01-11T12:09:12.568Z,0.40
2019-01-11T12:11:41.433Z,0.30
2019-01-11T12:14:10.209Z,0.30
2019-01-11T12:16:38.983Z,0.20
2019-01-11T12:19:08.015Z,0.20
2019-01-11T12:21:36.941Z,0.20
2019-01-11T12:24:05.794Z,0.10
2019-01-11T12:26:34.573Z,0.10
2019-01-11T12:29:03.547Z,0.10
2019-01-11T12:31:32.350Z,0.20
2019-01-11T12:34:01.206Z,0.20
2019-01-11T12:36:30.045Z,0.20
2019-01-11T12:38:58.825Z,0.20
2019-01-11T12:41:27.584Z,0.10
2019-01-11T12:43:56.385Z,0.20
2019-01-11T12:46:25.161Z,0.10
2019-01-11T12:48:53.943Z,0.10
2019-01-11T12:51:22.855Z,0.10
2019-01-11T12:53:51.640Z,0.20
2019-01-11T12:56:20.552Z,0.20
2019-01-11T12:58:49.572Z,0.30
2019-01-11T13:01:18.416Z,0.30
2019-01-11T13:03:47.279Z,0.20
2019-01-11T13:06:16.120Z,0.10
2019-01-11T13:08:44.908Z,0.10
2019-01-11T13:11:13.825Z,0.10
2019-01-11T13:13:42.597Z,0.20
2019-01-11T13:16:11.909Z,0.20
2019-01-11T13:18:40.685Z,0.20
2019-01-11T13:21:09.525Z,0.20
2019-01-11T13:23:38.452Z,0.20
2019-01-11T13:26:07.362Z,0.20
2019-01-11T13:28:36.151Z,0.30
2019-01-11T13:31:04.993Z,0.30
2019-01-11T13:33:33.844Z,0.20
2019-01-11T13:36:04.422Z,0.20
2019-01-11T13:38:33.199Z,0.10
2019-01-11T13:41:02.072Z,0.10
2019-01-11T13:43:31.080Z,0.10
2019-01-11T13:45:59.951Z,0.00
2019-01-11T13:48:28.731Z,0.00
2019-01-11T13:50:57.536Z,-0.10
2019-01-11T13:53:26.307Z,0.00
2019-01-11T13:55:55.097Z,0.00
2019-01-11T13:58:23.874Z,-0.10
2019-01-11T14:00:52.666Z,0.00
2019-01-11T14:03:21.445Z,0.00
2019-01-11T14:05:50.532Z,0.00
2019-01-11T14:08:19.292Z,0.00
2019-01-11T14:10:48.088Z,-0.10
2019-01-11T14:13:16.933Z,-0.10
2019-01-11T14:15:45.861Z,-0.20
2019-01-11T14:18:14.953Z,-0.30
2019-01-11T14:20:43.726Z,-0.30
2019-01-11T14:23:12.585Z,-0.40
2019-01-11T14:25:41.848Z,-0.50
2019-01-11T14:28:10.612Z,-0.60
2019-01-11T14:30:41.037Z,-0.60
2019-01-11T14:33:10.244Z,-0.70
2019-01-11T14:35:39.017Z,-0.80
2019-01-11T14:38:07.950Z,-0.70
2019-01-11T14:40:36.961Z,-0.80
2019-01-11T14:43:05.726Z,-0.70
2019-01-11T14:45:34.520Z,-0.70
2019-01-11T14:48:03.379Z,-0.70
2019-01-11T14:50:32.309Z,-0.60
2019-01-11T14:53:01.113Z,-0.70
2019-01-11T14:55:30.263Z,-0.70
2019-01-11T14:57:59.107Z,-0.80
2019-01-11T15:00:27.893Z,-0.80
2019-01-11T15:02:56.688Z,-0.70
2019-01-11T15:05:25.493Z,-0.70
2019-01-11T15:07:54.258Z,-0.70
2019-01-11T15:10:23.140Z,-0.70
2019-01-11T15:12:52.063Z,-0.70
2019-01-11T15:15:20.928Z,-0.70
2019-01-11T15:17:49.780Z,-0.70
2019-01-11T15:20:19.541Z,-0.70
2019-01-11T15:22:48.920Z,-0.70
2019-01-11T15:25:17.720Z,-0.70
2019-01-11T15:27:46.485Z,-0.70
2019-01-11T15:30:20.129Z,-0.70
2019-01-11T15:32:49.217Z,-0.70
2019-01-11T15:35:18.742Z,-0.80
2019-01-11T15:37:47.897Z,-0.80
2019-01-11T15:40:25.220Z,-0.80
2019-01-11T15:42:53.992Z,-0.80
2019-01-11T15:45:22.852Z,-0.80
2019-01-11T15:47:52.706Z,-0.90
2019-01-11T15:50:50.601Z,-0.90
2019-01-11T15:53:19.389Z,-0.90
2019-01-11T15:55:49.537Z,-0.90
2019-01-11T15:58:18.593Z,-0.90
2019-01-11T16:00:48.801Z,-0.90
2019-01-11T16:03:17.844Z,-0.90
2019-01-11T16:05:46.700Z,-0.90
2019-01-11T16:08:15.553Z,-0.90
2019-01-11T16:11:27.281Z,-0.90
2019-01-11T16:14:33.156Z,-0.90
2019-01-11T16:17:09.084Z,-0.90
2019-01-11T16:19:37.878Z,-0.90
2019-01-11T16:22:06.756Z,-0.90
2019-01-11T16:24:35.609Z,-0.90
2019-01-11T16:27:04.472Z,-1.00
2019-01-11T16:29:33.321Z,-1.00
2019-01-11T16:32:02.180Z,-1.00
2019-01-11T16:34:31.206Z,-1.00
2019-01-11T16:37:00.345Z,-1.00
2019-01-11T16:39:29.141Z,-1.00
2019-01-11T16:42:01.130Z,-1.00
2019-01-11T16:44:30.478Z,-1.00
2019-01-11T16:46:59.328Z,-1.10
2019-01-11T16:49:28.180Z,-1.10
2019-01-11T16:51:57.038Z,-1.10
2019-01-11T16:54:25.809Z,-1.10
2019-01-11T16:56:54.644Z,-1.00
2019-01-11T16:59:23.487Z,-1.10
2019-01-11T17:01:52.290Z,-1.00
2019-01-11T17:04:21.153Z,-1.00
2019-01-11T17:06:50.179Z,-1.10
2019-01-11T17:09:18.957Z,-1.10
2019-01-11T17:11:47.795Z,-1.10
2019-01-11T17:14:16.581Z,-1.10
2019-01-11T17:16:45.359Z,-1.10
2019-01-11T17:19:14.227Z,-1.10
2019-01-11T17:21:43.056Z,-1.20
2019-01-11T17:24:11.949Z,-1.20
2019-01-11T17:26:40.779Z,-1.10
2019-01-11T17:29:09.577Z,-1.10
2019-01-11T17:31:38.357Z,-1.10
2019-01-11T17:34:07.286Z,-1.10
2019-01-11T17:36:36.129Z,-1.10
2019-01-11T17:39:08.514Z,-1.10
2019-01-11T17:41:37.582Z,-1.20
2019-01-11T17:44:07.209Z,-1.20
2019-01-11T17:46:36.261Z,-1.20
2019-01-11T17:49:05.513Z,-1.20
2019-01-11T17:51:34.361Z,-1.10
2019-01-11T17:54:03.225Z,-1.20
2019-01-11T17:56:32.257Z,-1.10
2019-01-11T17:59:01.052Z,-1.10
2019-01-11T18:01:29.838Z,-1.10
2019-01-11T18:03:58.616Z,-1.10
2019-01-11T18:06:27.397Z,-1.10
2019-01-11T18:08:56.195Z,-1.10
2019-01-11T18:11:24.972Z,-1.10
2019-01-11T18:13:53.744Z,-1.10
2019-01-11T18:16:22.524Z,-1.10
2019-01-11T18:18:51.531Z,-1.00
2019-01-11T18:21:20.370Z,-1.00
2019-01-11T18:23:49.724Z,-1.00
2019-01-11T18:26:18.575Z,-1.00
2019-01-11T18:28:48.168Z,-1.00
2019-01-11T18:31:19.992Z,-1.00
2019-01-11T18:33:48.938Z,-0.90
2019-01-11T18:36:17.834Z,-1.00
2019-01-11T18:38:46.611Z,-0.90
2019-01-11T18:41:15.401Z,-0.90
2019-01-11T18:43:44.499Z,-0.90
2019-01-11T18:46:13.432Z,-0.90
2019-01-11T18:48:42.201Z,-0.90
2019-01-11T18:51:11.300Z,-0.80
2019-01-11T18:53:40.182Z,-0.70
2019-01-11T18:56:09.122Z,-0.70
2019-01-11T18:58:38.144Z,-0.70
2019-01-11T19:01:07.017Z,-0.80
2019-01-11T19:03:35.826Z,-0.90
2019-01-11T19:06:05.412Z,-0.90
2019-01-11T19:08:34.201Z,-0.80
2019-01-11T19:11:02.981Z,-0.80
2019-01-11T19:13:31.754Z,-0.80
2019-01-11T19:16:00.564Z,-0.80
2019-01-11T19:18:29.664Z,-0.70
2019-01-11T19:20:59.268Z,-0.70
2019-01-11T19:23:28.247Z,-0.60
2019-01-11T19:25:57.028Z,-0.70
2019-01-11T19:28:25.885Z,-0.60
2019-01-11T19:30:54.669Z,-0.60
2019-01-11T19:33:23.561Z,-0.70
2019-01-11T19:35:52.853Z,-0.70
2019-01-11T19:38:22.426Z,-0.70
2019-01-11T19:40:51.409Z,-0.70
2019-01-11T19:43:20.193Z,-0.70
2019-01-11T19:45:49.177Z,-0.70
2019-01-11T19:48:17.974Z,-0.60
2019-01-11T19:50:46.765Z,-0.50
2019-01-11T19:53:15.916Z,-0.40
2019-01-11T19:55:44.755Z,-0.40
2019-01-11T20:00:42.580Z,-0.20
2019-01-11T20:03:11.905Z,-0.10
2019-01-11T20:05:41.036Z,-0.10
2019-01-11T20:08:10.344Z,-0.10
2019-01-11T20:10:42.691Z,-0.10
2019-01-11T20:13:12.109Z,0.00
2019-01-11T20:15:40.977Z,0.10
2019-01-11T20:18:10.285Z,-0.10
2019-01-11T20:20:40.115Z,-0.10
2019-01-11T20:23:10.009Z,0.00
2019-01-11T20:25:39.709Z,0.00
2019-01-11T20:28:09.073Z,0.00
2019-01-11T20:30:38.556Z,0.00
2019-01-11T20:33:07.713Z,0.00
2019-01-11T20:35:36.660Z,0.10
2019-01-11T20:38:08.738Z,0.00
2019-01-11T20:40:37.873Z,0.10
2019-01-11T20:43:07.419Z,0.10
2019-01-11T20:45:36.928Z,0.10
2019-01-11T20:48:06.051Z,0.10
2019-01-11T20:50:35.249Z,0.10
2019-01-11T20:53:04.880Z,0.20
2019-01-11T20:55:34.570Z,0.30
2019-01-11T20:58:03.653Z,0.30
2019-01-11T21:00:35.076Z,0.30
2019-01-11T21:03:07.614Z,0.30
2019-01-11T21:05:36.553Z,0.30
2019-01-11T21:08:11.645Z,0.30
2019-01-11T21:10:40.769Z,0.30
2019-01-11T21:13:10.001Z,0.30
2019-01-11T21:15:39.523Z,0.30
2019-01-11T21:18:08.720Z,0.30
2019-01-11T21:20:37.514Z,0.30
2019-01-11T21:23:06.458Z,0.40
2019-01-11T21:25:35.361Z,0.30
2019-01-11T21:28:04.553Z,0.30
2019-01-11T21:30:33.696Z,0.30
2019-01-11T21:33:02.750Z,0.30
2019-01-11T21:35:31.818Z,0.40
2019-01-11T21:38:01.821Z,0.30
2019-01-11T21:40:33.387Z,0.30
2019-01-11T21:43:02.628Z,0.40
2019-01-11T21:45:31.641Z,0.40
2019-01-11T21:48:00.562Z,0.40
2019-01-11T21:50:34.647Z,0.40
2019-01-11T21:53:08.105Z,0.40
2019-01-11T21:55:34.462Z,0.50
2019-01-11T21:58:03.791Z,0.50
2019-01-11T22:00:41.397Z,0.50
2019-01-11T22:03:15.940Z,0.50
2019-01-11T22:05:45.096Z,0.50
2019-01-11T22:08:14.061Z,0.50
2019-01-11T22:10:42.997Z,0.50
2019-01-11T22:13:11.977Z,0.60
2019-01-11T22:15:40.945Z,0.60
2019-01-11T22:18:10.212Z,0.60
2019-01-11T22:20:39.883Z,0.50
2019-01-11T22:23:09.155Z,0.50
2019-01-11T22:25:38.768Z,0.50
2019-01-11T22:28:08.160Z,0.50
2019-01-11T22:30:37.595Z,0.50
2019-01-11T22:33:06.729Z,0.50
2019-01-11T22:35:35.865Z,0.50
2019-01-11T22:38:05.797Z,0.50
2019-01-11T22:40:34.833Z,0.50
2019-01-11T22:43:04.712Z,0.60
2019-01-11T22:45:33.827Z,0.50
2019-01-11T22:48:03.012Z,0.50
2019-01-11T22:50:32.314Z,0.50
2019-01-11T22:53:02.340Z,0.50
2019-01-11T22:55:31.465Z,0.50
2019-01-11T22:58:00.606Z,0.60
2019-01-11T23:00:54.349Z,0.60
2019-01-11T23:03:30.510Z,0.60
2019-01-11T23:06:10.298Z,0.50
2019-01-11T23:08:39.419Z,0.50
2019-01-11T23:11:36.476Z,0.50
2019-01-11T23:14:07.084Z,0.50
2019-01-11T23:16:47.600Z,0.50
2019-01-11T23:19:21.201Z,0.50
2019-01-11T23:22:06.634Z,0.50
2019-01-11T23:24:35.695Z,0.50
2019-01-11T23:27:04.638Z,0.50
2019-01-11T23:29:33.956Z,0.60
2019-01-11T23:32:13.283Z,0.60
2019-01-11T23:34:42.894Z,0.60
2019-01-11T23:37:12.648Z,0.50
2019-01-11T23:39:41.520Z,0.40
2019-01-11T23:42:12.989Z,0.30
2019-01-11T23:44:44.098Z,0.30
2019-01-11T23:47:15.478Z,0.30
2019-01-11T23:49:44.567Z,0.40
2019-01-11T23:52:14.701Z,0.40
2019-01-11T23:54:43.772Z,0.40
2019-01-11T23:57:15.525Z,0.50
2019-01-11T23:59:44.396Z,0.50
